createdAt,value
2023-05-24T00:01:48.036Z,14.87
2023-05-24T00:04:21.493Z,14.85
2023-05-24T00:06:56.366Z,14.85
2023-05-24T00:09:29.557Z,14.83
2023-05-24T00:12:02.764Z,14.79
2023-05-24T00:14:36.203Z,14.78
2023-05-24T00:17:09.612Z,14.74
2023-05-24T00:19:43.014Z,14.70
2023-05-24T00:22:16.578Z,14.65
2023-05-24T00:24:49.757Z,14.60
2023-05-24T00:27:22.926Z,14.53
2023-05-24T00:29:56.164Z,14.47
2023-05-24T00:32:29.495Z,14.40
2023-05-24T00:35:03.628Z,14.31
2023-05-24T00:37:42.208Z,14.21
2023-05-24T00:40:16.027Z,14.12
2023-05-24T00:42:49.601Z,14.01
2023-05-24T00:45:23.722Z,13.91
2023-05-24T00:47:57.493Z,13.82
2023-05-24T00:50:31.372Z,13.72
2023-05-24T00:53:08.216Z,13.61
2023-05-24T00:55:41.611Z,13.52
2023-05-24T00:58:15.299Z,13.42
2023-05-24T01:00:51.282Z,13.36
2023-05-24T01:03:24.672Z,13.30
2023-05-24T01:05:58.646Z,13.25
2023-05-24T01:08:49.867Z,13.18
2023-05-24T01:11:31.927Z,13.10
2023-05-24T01:14:17.563Z,13.02
2023-05-24T01:16:56.773Z,12.93
2023-05-24T01:20:00.249Z,12.85
2023-05-24T01:23:00.527Z,12.75
2023-05-24T01:25:48.543Z,12.59
2023-05-24T01:28:23.876Z,12.57
2023-05-24T01:31:00.204Z,12.50
2023-05-24T01:33:33.731Z,12.43
2023-05-24T01:36:07.550Z,12.37
2023-05-24T01:38:41.675Z,12.31
2023-05-24T01:41:33.601Z,12.25
2023-05-24T01:44:15.594Z,12.20
2023-05-24T01:46:55.352Z,12.16
2023-05-24T01:49:32.980Z,12.11
2023-05-24T01:52:09.874Z,12.07
2023-05-24T01:54:50.698Z,12.03
2023-05-24T01:57:24.709Z,11.97
2023-05-24T01:59:59.152Z,11.91
2023-05-24T02:02:32.384Z,11.86
2023-05-24T02:05:06.779Z,11.80
2023-05-24T02:07:42.188Z,11.74
2023-05-24T02:10:16.093Z,11.67
2023-05-24T02:12:49.311Z,11.62
2023-05-24T02:15:22.889Z,11.56
2023-05-24T02:17:56.259Z,11.52
2023-05-24T02:20:31.276Z,11.45
2023-05-24T02:23:05.920Z,11.39
2023-05-24T02:25:39.290Z,11.33
2023-05-24T02:28:12.528Z,11.27
2023-05-24T02:30:46.282Z,11.21
2023-05-24T02:33:19.636Z,11.16
2023-05-24T02:35:52.958Z,11.10
2023-05-24T02:38:26.764Z,11.04
2023-05-24T02:41:00.377Z,10.97
2023-05-24T02:43:33.580Z,10.85
2023-05-24T02:46:07.070Z,10.75
2023-05-24T02:48:40.642Z,10.65
2023-05-24T02:51:13.904Z,10.55
2023-05-24T02:53:47.085Z,10.47
2023-05-24T02:56:20.682Z,10.41
2023-05-24T02:58:54.529Z,10.37
2023-05-24T03:01:28.177Z,10.27
2023-05-24T03:04:02.282Z,10.29
2023-05-24T03:06:36.911Z,10.24
2023-05-24T03:09:10.126Z,10.20
2023-05-24T03:11:43.447Z,10.16
2023-05-24T03:14:17.647Z,10.13
2023-05-24T03:16:51.521Z,10.11
2023-05-24T03:19:24.663Z,10.08
2023-05-24T03:21:58.288Z,10.05
2023-05-24T03:24:32.008Z,10.03
2023-05-24T03:27:05.605Z,10.02
2023-05-24T03:29:39.122Z,10.01
2023-05-24T03:32:12.889Z,10.00
2023-05-24T03:34:46.254Z,9.98
2023-05-24T03:37:20.208Z,9.96
2023-05-24T03:39:53.670Z,9.97
2023-05-24T03:42:45.650Z,9.94
2023-05-24T03:45:27.062Z,9.81
2023-05-24T03:48:08.624Z,9.91
2023-05-24T03:50:42.554Z,9.90
2023-05-24T03:53:16.046Z,9.90
2023-05-24T03:55:49.643Z,9.89
2023-05-24T03:58:23.247Z,9.89
2023-05-24T04:00:56.994Z,9.89
2023-05-24T04:03:30.360Z,9.89
2023-05-24T04:06:03.665Z,9.88
2023-05-24T04:08:37.102Z,9.88
2023-05-24T04:11:10.119Z,9.87
2023-05-24T04:13:44.106Z,9.85
2023-05-24T04:16:17.806Z,9.86
2023-05-24T04:18:51.494Z,9.87
2023-05-24T04:21:25.368Z,9.87
2023-05-24T04:24:00.681Z,9.86
2023-05-24T04:26:34.410Z,9.86
2023-05-24T04:29:07.992Z,9.86
2023-05-24T04:31:43.635Z,9.86
2023-05-24T04:34:17.009Z,9.85
2023-05-24T04:36:52.685Z,9.86
2023-05-24T04:39:26.208Z,9.86
2023-05-24T04:42:00.911Z,9.86
2023-05-24T04:44:34.335Z,9.88
2023-05-24T04:47:09.146Z,9.89
2023-05-24T04:49:42.520Z,9.91
2023-05-24T04:52:16.559Z,9.93
2023-05-24T04:54:50.147Z,9.97
2023-05-24T04:57:23.892Z,10.02
2023-05-24T04:59:57.263Z,10.06
2023-05-24T05:02:30.881Z,10.11
2023-05-24T05:05:04.899Z,10.13
2023-05-24T05:07:38.758Z,10.16
2023-05-24T05:10:13.249Z,10.18
2023-05-24T05:12:46.646Z,10.21
2023-05-24T05:15:24.963Z,10.23
2023-05-24T05:17:58.724Z,10.26
2023-05-24T05:20:32.247Z,10.28
2023-05-24T05:23:06.204Z,10.30
2023-05-24T05:25:39.621Z,10.34
2023-05-24T05:28:13.030Z,10.38
2023-05-24T05:30:46.467Z,10.44
2023-05-24T05:33:19.974Z,10.46
2023-05-24T05:35:54.908Z,10.48
2023-05-24T05:38:28.740Z,10.48
2023-05-24T05:41:02.748Z,10.50
2023-05-24T05:43:36.165Z,10.50
2023-05-24T05:46:11.496Z,10.53
2023-05-24T05:48:46.416Z,10.57
2023-05-24T05:51:20.118Z,10.59
2023-05-24T05:53:53.778Z,10.62
2023-05-24T05:56:28.032Z,10.65
2023-05-24T05:59:01.279Z,10.72
2023-05-24T06:01:34.906Z,10.75
2023-05-24T06:04:08.779Z,10.86
2023-05-24T06:06:42.298Z,10.97
2023-05-24T06:09:16.078Z,11.12
2023-05-24T06:11:49.731Z,11.30
2023-05-24T06:14:25.520Z,11.47
2023-05-24T06:17:00.275Z,11.64
2023-05-24T06:19:34.425Z,11.76
2023-05-24T06:22:08.338Z,11.87
2023-05-24T06:24:41.884Z,11.94
2023-05-24T06:27:15.353Z,12.01
2023-05-24T06:29:49.602Z,12.00
2023-05-24T06:32:23.361Z,11.91
2023-05-24T06:34:57.490Z,11.82
2023-05-24T06:37:31.920Z,11.80
2023-05-24T06:40:08.034Z,11.82
2023-05-24T06:42:42.820Z,11.86
2023-05-24T06:45:16.984Z,11.90
2023-05-24T06:47:51.186Z,11.98
2023-05-24T06:50:29.565Z,12.12
2023-05-24T06:53:04.002Z,12.26
2023-05-24T06:55:37.713Z,12.30
2023-05-24T06:58:14.697Z,12.28
2023-05-24T07:00:49.041Z,12.32
2023-05-24T07:03:22.349Z,12.46
2023-05-24T07:05:58.345Z,12.56
2023-05-24T07:08:31.849Z,12.68
2023-05-24T07:11:05.319Z,12.82
2023-05-24T07:13:39.166Z,12.92
2023-05-24T07:16:12.469Z,12.96
2023-05-24T07:18:46.475Z,12.91
2023-05-24T07:21:19.934Z,12.84
2023-05-24T07:23:53.846Z,12.89
2023-05-24T07:26:27.210Z,12.89
2023-05-24T07:29:00.483Z,13.06
2023-05-24T07:31:35.055Z,13.17
2023-05-24T07:34:08.818Z,13.27
2023-05-24T07:36:42.429Z,13.32
2023-05-24T07:39:17.243Z,13.34
2023-05-24T07:42:23.326Z,13.41
2023-05-24T07:45:01.329Z,13.29
2023-05-24T07:47:35.460Z,13.19
2023-05-24T07:50:11.004Z,13.20
2023-05-24T07:52:45.556Z,13.20
2023-05-24T07:55:19.159Z,13.20
2023-05-24T07:57:52.867Z,13.17
2023-05-24T08:00:28.233Z,13.18
2023-05-24T08:03:02.137Z,13.12
2023-05-24T08:05:35.696Z,13.16
2023-05-24T08:08:09.974Z,13.17
2023-05-24T08:10:43.807Z,13.24
2023-05-24T08:13:17.489Z,13.25
2023-05-24T08:15:51.892Z,13.21
2023-05-24T08:18:25.646Z,13.22
2023-05-24T08:21:18.356Z,13.30
2023-05-24T08:24:49.870Z,13.30
2023-05-24T08:28:26.571Z,13.32
2023-05-24T08:31:30.990Z,13.42
2023-05-24T08:34:38.064Z,13.44
2023-05-24T08:37:36.548Z,13.50
2023-05-24T08:40:11.605Z,13.44
2023-05-24T08:43:47.464Z,13.37
2023-05-24T08:47:27.754Z,13.35
2023-05-24T08:50:40.134Z,13.52
2023-05-24T08:54:06.350Z,13.67
2023-05-24T08:57:53.267Z,13.77
2023-05-24T09:00:29.308Z,13.81
2023-05-24T09:03:23.603Z,13.81
2023-05-24T09:06:28.123Z,13.77
2023-05-24T09:09:28.411Z,13.84
2023-05-24T09:12:36.181Z,14.05
2023-05-24T09:15:34.969Z,14.14
2023-05-24T09:18:09.039Z,14.22
2023-05-24T09:20:47.153Z,14.39
2023-05-24T09:23:49.307Z,14.48
2023-05-24T09:26:31.024Z,14.69
2023-05-24T09:29:19.055Z,14.85
2023-05-24T09:32:00.947Z,14.71
2023-05-24T09:34:44.080Z,14.60
2023-05-24T09:37:42.747Z,14.58
2023-05-24T09:40:37.393Z,14.66
2023-05-24T09:43:12.423Z,14.84
2023-05-24T09:45:51.060Z,15.19
2023-05-24T09:48:46.374Z,15.38
2023-05-24T09:51:56.767Z,15.39
2023-05-24T09:54:42.684Z,15.45
2023-05-24T09:57:20.419Z,15.51
2023-05-24T10:00:24.246Z,15.61
2023-05-24T10:03:17.779Z,15.58
2023-05-24T10:05:54.885Z,15.51
2023-05-24T10:09:11.571Z,15.42
2023-05-24T10:12:59.046Z,15.16
2023-05-24T10:16:38.608Z,14.97
2023-05-24T10:19:38.610Z,15.05
2023-05-24T10:22:56.294Z,15.10
2023-05-24T10:25:54.892Z,15.03
2023-05-24T10:28:43.285Z,15.01
2023-05-24T10:32:11.973Z,15.16
2023-05-24T10:35:53.234Z,15.36
2023-05-24T10:38:42.000Z,15.42
2023-05-24T10:41:16.408Z,15.36
2023-05-24T10:44:07.266Z,15.25
2023-05-24T10:47:09.001Z,15.20
2023-05-24T10:49:52.112Z,15.28
2023-05-24T10:52:37.409Z,15.36
2023-05-24T10:55:13.541Z,15.45
2023-05-24T10:57:47.998Z,15.58
2023-05-24T11:00:35.672Z,15.58
2023-05-24T11:03:12.782Z,15.53
2023-05-24T11:05:57.122Z,15.54
2023-05-24T11:08:35.800Z,15.55
2023-05-24T11:13:51.023Z,15.50
2023-05-24T11:16:39.505Z,15.46
2023-05-24T11:19:18.763Z,15.60
2023-05-24T11:21:54.812Z,15.78
2023-05-24T11:24:29.304Z,15.92
2023-05-24T11:27:03.891Z,15.98
2023-05-24T11:29:45.275Z,15.99
2023-05-24T11:32:21.407Z,15.83
2023-05-24T11:34:56.490Z,15.69
2023-05-24T11:37:45.174Z,15.53
2023-05-24T11:40:20.726Z,15.47
2023-05-24T11:42:54.010Z,15.48
2023-05-24T11:45:27.568Z,15.60
2023-05-24T11:48:05.396Z,15.58
2023-05-24T11:50:49.528Z,15.50
2023-05-24T11:53:25.314Z,15.53
2023-05-24T11:55:58.712Z,15.53
2023-05-24T11:58:43.027Z,15.49
2023-05-24T12:01:28.669Z,15.55
2023-05-24T12:04:02.202Z,15.62
2023-05-24T12:06:43.708Z,15.70
2023-05-24T12:09:19.098Z,15.79
2023-05-24T12:11:53.938Z,15.73
2023-05-24T12:14:31.393Z,15.68
2023-05-24T12:17:05.268Z,15.66
2023-05-24T12:19:39.733Z,15.71
2023-05-24T12:22:13.449Z,15.73
2023-05-24T12:24:50.897Z,15.77
2023-05-24T12:27:31.243Z,15.88
2023-05-24T12:30:18.949Z,15.99
2023-05-24T12:32:54.085Z,16.16
2023-05-24T12:35:27.546Z,16.20
2023-05-24T12:38:03.684Z,16.13
2023-05-24T12:40:37.119Z,16.11
2023-05-24T12:43:11.009Z,16.12
2023-05-24T12:45:44.558Z,16.17
2023-05-24T12:48:18.110Z,16.36
2023-05-24T12:50:52.241Z,16.50
2023-05-24T12:53:26.234Z,16.63
2023-05-24T12:56:00.932Z,16.64
2023-05-24T12:58:34.015Z,16.55
2023-05-24T13:01:07.352Z,16.46
2023-05-24T13:03:41.063Z,16.40
2023-05-24T13:06:14.298Z,16.30
2023-05-24T13:08:47.714Z,16.21
2023-05-24T13:11:21.096Z,16.23
2023-05-24T13:13:54.452Z,16.15
2023-05-24T13:16:28.068Z,16.12
2023-05-24T13:19:01.633Z,16.10
2023-05-24T13:21:35.828Z,16.14
2023-05-24T13:24:09.651Z,16.11
2023-05-24T13:26:43.373Z,16.09
2023-05-24T13:31:52.888Z,16.03
2023-05-24T13:34:27.431Z,16.06
2023-05-24T13:37:01.121Z,16.12
2023-05-24T13:39:35.784Z,16.22
2023-05-24T13:42:11.010Z,16.24
2023-05-24T13:44:44.468Z,16.21
2023-05-24T13:47:31.081Z,16.23
2023-05-24T13:50:10.562Z,16.35
2023-05-24T13:52:44.300Z,16.38
2023-05-24T13:55:17.688Z,16.34
2023-05-24T13:57:52.313Z,16.44
2023-05-24T14:00:26.959Z,16.36
2023-05-24T14:03:00.798Z,16.26
2023-05-24T14:05:34.716Z,16.24
2023-05-24T14:08:08.703Z,16.33
2023-05-24T14:10:42.054Z,16.41
2023-05-24T14:13:36.797Z,16.53
2023-05-24T14:16:09.913Z,16.72
2023-05-24T14:18:43.523Z,16.75
2023-05-24T14:21:16.979Z,16.77
2023-05-24T14:23:51.526Z,16.65
2023-05-24T14:26:25.443Z,16.52
2023-05-24T14:28:58.884Z,16.43
2023-05-24T14:31:32.863Z,16.32
2023-05-24T14:34:08.136Z,16.19
2023-05-24T14:37:08.489Z,16.06
2023-05-24T14:41:04.346Z,15.88
2023-05-24T14:44:31.790Z,15.99
2023-05-24T14:48:08.589Z,16.11
2023-05-24T14:51:29.179Z,16.12
2023-05-24T14:55:05.475Z,16.13
2023-05-24T14:58:46.760Z,15.98
2023-05-24T15:01:21.962Z,15.81
2023-05-24T15:04:36.109Z,15.72
2023-05-24T15:08:21.528Z,15.59
2023-05-24T15:11:54.781Z,15.56
2023-05-24T15:14:28.182Z,15.59
2023-05-24T15:17:22.096Z,15.61
2023-05-24T15:21:07.811Z,15.69
2023-05-24T15:25:12.322Z,15.70
2023-05-24T15:28:11.045Z,15.75
2023-05-24T15:31:04.920Z,15.89
2023-05-24T15:34:51.296Z,16.12
2023-05-24T15:38:04.691Z,16.37
2023-05-24T15:41:29.937Z,16.55
2023-05-24T15:44:33.249Z,16.68
2023-05-24T15:48:03.972Z,16.84
2023-05-24T15:53:39.192Z,17.16
2023-05-24T15:56:12.732Z,17.32
2023-05-24T15:58:46.256Z,17.44
2023-05-24T16:01:19.556Z,17.43
2023-05-24T16:03:52.914Z,17.44
2023-05-24T16:06:26.360Z,17.45
2023-05-24T16:08:59.662Z,17.46
2023-05-24T16:11:35.860Z,17.54
2023-05-24T16:14:10.805Z,17.66
2023-05-24T16:16:47.685Z,17.66
2023-05-24T16:19:27.944Z,17.66
2023-05-24T16:22:01.696Z,17.71
2023-05-24T16:24:35.396Z,17.77
2023-05-24T16:27:13.627Z,17.82
2023-05-24T16:29:47.283Z,17.84
2023-05-24T16:32:25.305Z,17.82
2023-05-24T16:35:00.106Z,17.83
2023-05-24T16:37:33.578Z,17.81
2023-05-24T16:40:07.829Z,17.81
2023-05-24T16:42:43.155Z,17.82
2023-05-24T16:45:18.660Z,17.79
2023-05-24T16:47:55.226Z,17.66
2023-05-24T16:50:29.607Z,17.57
2023-05-24T16:53:09.928Z,17.51
2023-05-24T16:55:44.432Z,17.53
2023-05-24T16:58:19.422Z,17.52
2023-05-24T17:00:54.767Z,17.52
2023-05-24T17:03:38.478Z,17.57
2023-05-24T17:06:15.969Z,17.60
2023-05-24T17:08:54.200Z,17.64
2023-05-24T17:11:30.797Z,17.60
2023-05-24T17:14:05.088Z,17.54
2023-05-24T17:16:40.172Z,17.65
2023-05-24T17:19:14.622Z,17.94
2023-05-24T17:21:48.218Z,17.92
2023-05-24T17:24:25.716Z,17.78
2023-05-24T17:27:00.049Z,17.73
2023-05-24T17:29:35.399Z,17.88
2023-05-24T17:32:19.930Z,18.18
2023-05-24T17:34:53.984Z,18.47
2023-05-24T17:37:28.359Z,18.64
2023-05-24T17:40:02.036Z,18.68
2023-05-24T17:42:35.962Z,18.76
2023-05-24T17:45:11.803Z,18.89
2023-05-24T17:47:46.531Z,18.89
2023-05-24T17:50:25.881Z,18.89
2023-05-24T17:53:19.220Z,18.83
2023-05-24T17:56:07.439Z,18.70
2023-05-24T17:58:42.088Z,18.58
2023-05-24T18:01:15.695Z,18.44
2023-05-24T18:03:50.634Z,18.30
2023-05-24T18:06:24.063Z,18.18
2023-05-24T18:08:59.085Z,18.05
2023-05-24T18:11:35.704Z,17.90
2023-05-24T18:14:37.757Z,17.69
2023-05-24T18:17:21.957Z,17.49
2023-05-24T18:19:56.435Z,17.27
2023-05-24T18:22:30.263Z,17.05
2023-05-24T18:25:03.842Z,16.82
2023-05-24T18:27:38.204Z,16.53
2023-05-24T18:30:13.987Z,16.38
2023-05-24T18:33:04.482Z,16.16
2023-05-24T18:35:40.744Z,15.92
2023-05-24T18:38:14.641Z,15.69
2023-05-24T18:40:48.224Z,15.48
2023-05-24T18:43:22.542Z,15.27
2023-05-24T18:45:59.707Z,15.05
2023-05-24T18:48:36.094Z,14.84
2023-05-24T18:51:09.843Z,14.64
2023-05-24T18:53:43.572Z,14.45
2023-05-24T18:56:26.592Z,14.25
2023-05-24T18:59:01.019Z,14.06
2023-05-24T19:01:34.761Z,13.90
2023-05-24T19:04:08.413Z,13.74
2023-05-24T19:06:42.191Z,13.58
2023-05-24T19:09:15.835Z,13.42
2023-05-24T19:11:49.886Z,13.26
2023-05-24T19:14:23.924Z,13.10
2023-05-24T19:16:57.477Z,12.94
2023-05-24T19:19:34.531Z,12.80
2023-05-24T19:22:13.480Z,12.64
2023-05-24T19:24:47.382Z,12.50
2023-05-24T19:27:22.450Z,12.36
2023-05-24T19:29:59.464Z,12.24
2023-05-24T19:32:33.071Z,12.12
2023-05-24T19:35:11.828Z,12.00
2023-05-24T19:37:47.743Z,11.87
2023-05-24T19:40:25.716Z,11.74
2023-05-24T19:42:59.146Z,11.62
2023-05-24T19:45:32.820Z,11.52
2023-05-24T19:48:09.841Z,11.42
2023-05-24T19:50:46.587Z,11.33
2023-05-24T19:53:23.814Z,11.23
2023-05-24T19:55:59.755Z,11.14
2023-05-24T19:58:36.127Z,11.04
2023-05-24T20:01:12.113Z,10.96
2023-05-24T20:03:49.414Z,10.87
2023-05-24T20:06:22.776Z,10.79
2023-05-24T20:08:59.899Z,10.71
2023-05-24T20:11:33.926Z,10.62
2023-05-24T20:14:08.200Z,10.55
2023-05-24T20:16:42.604Z,10.41
2023-05-24T20:19:16.209Z,10.37
2023-05-24T20:21:50.609Z,10.30
2023-05-24T20:24:25.936Z,10.23
2023-05-24T20:26:59.260Z,10.17
2023-05-24T20:29:32.424Z,10.10
2023-05-24T20:32:06.473Z,10.02
2023-05-24T20:34:40.262Z,9.94
2023-05-24T20:37:14.592Z,9.87
2023-05-24T20:39:48.490Z,9.82
2023-05-24T20:42:22.415Z,9.75
2023-05-24T20:44:57.811Z,9.70
2023-05-24T20:47:31.173Z,9.64
2023-05-24T20:50:05.222Z,9.59
2023-05-24T20:52:39.131Z,9.54
2023-05-24T20:55:12.912Z,9.49
2023-05-24T20:57:46.046Z,9.43
2023-05-24T21:00:19.960Z,9.28
2023-05-24T21:02:53.867Z,9.32
2023-05-24T21:05:27.175Z,9.26
2023-05-24T21:08:00.358Z,9.20
2023-05-24T21:10:33.850Z,9.15
2023-05-24T21:13:07.061Z,9.10
2023-05-24T21:15:40.001Z,9.05
2023-05-24T21:18:13.307Z,8.99
2023-05-24T21:20:46.887Z,8.88
2023-05-24T21:23:19.976Z,8.89
2023-05-24T21:25:52.987Z,8.83
2023-05-24T21:28:26.082Z,8.78
2023-05-24T21:30:59.024Z,8.75
2023-05-24T21:33:32.078Z,8.71
2023-05-24T21:36:05.149Z,8.68
2023-05-24T21:38:38.377Z,8.65
2023-05-24T21:41:11.362Z,8.62
2023-05-24T21:43:45.356Z,8.58
2023-05-24T21:46:18.511Z,8.49
2023-05-24T21:48:51.791Z,8.51
2023-05-24T21:51:25.156Z,8.48
2023-05-24T21:53:58.199Z,8.45
2023-05-24T21:56:31.340Z,8.43
2023-05-24T21:59:04.331Z,8.41
2023-05-24T22:01:37.329Z,8.39
2023-05-24T22:04:11.022Z,8.37
2023-05-24T22:06:46.263Z,8.35
2023-05-24T22:09:19.473Z,8.34
2023-05-24T22:11:52.724Z,8.33
2023-05-24T22:14:25.800Z,8.31
2023-05-24T22:16:58.917Z,8.29
2023-05-24T22:22:07.217Z,8.24
2023-05-24T22:24:40.147Z,8.20
2023-05-24T22:27:14.027Z,8.16
2023-05-24T22:29:47.079Z,8.09
2023-05-24T22:32:20.633Z,8.00
2023-05-24T22:34:53.836Z,7.93
2023-05-24T22:37:26.889Z,7.90
2023-05-24T22:39:59.887Z,7.89
2023-05-24T22:42:33.083Z,7.82
2023-05-24T22:45:07.001Z,7.89
2023-05-24T22:47:40.162Z,7.90
2023-05-24T22:50:14.000Z,7.92
2023-05-24T22:52:47.163Z,7.94
2023-05-24T22:55:20.304Z,7.96
2023-05-24T22:57:53.319Z,7.98
2023-05-24T23:00:26.780Z,8.00
2023-05-24T23:02:59.761Z,8.03
2023-05-24T23:05:32.677Z,8.05
2023-05-24T23:08:06.078Z,8.08
2023-05-24T23:10:41.048Z,8.11
2023-05-24T23:13:15.046Z,8.12
2023-05-24T23:15:48.806Z,8.11
2023-05-24T23:18:22.974Z,8.10
2023-05-24T23:20:56.321Z,8.09
2023-05-24T23:23:29.514Z,8.09
2023-05-24T23:26:02.488Z,8.07
2023-05-24T23:28:35.912Z,8.05
2023-05-24T23:31:09.110Z,8.05
2023-05-24T23:33:42.076Z,8.03
2023-05-24T23:36:15.098Z,8.02
2023-05-24T23:38:48.277Z,7.99
2023-05-24T23:41:21.548Z,7.97
2023-05-24T23:43:54.486Z,7.95
2023-05-24T23:46:27.501Z,7.92
2023-05-24T23:49:02.084Z,7.90
2023-05-24T23:51:36.925Z,7.87
2023-05-24T23:54:10.001Z,7.83
2023-05-24T23:56:43.087Z,7.80
2023-05-24T23:59:17.278Z,7.74
